Main page
METAR-TAF:

METAR-TAF

Airports :

Rijeka Airport

Rijeka, Croatia

latitude: 45-13N, longitude: 014-35E, elevation: 85 m

Current weather observation

The report was made 17 minutes ago, at 16:30 UTC
Wind 4 kt from the West, varying between South/Southwest and West/Northwest
Temperature 29°C
Humidity 43%
Pressure 1018 hPa
Visibility 10 km or more
no clouds below 1500 m and no cumulonimbus

METAR: LDRI 201630Z 27004KT 210V300 CAVOK 29/15 Q1018

Time: 18:47 (16:47 UTC)

Forecast

The report was made 5 hours and 22 minutes ago, at 11:25 UTC
Forecast valid from 20 at 12 UTC to 21 at 12 UTC
Wind 6 kt from the West/Northwest
Visibility 10 km or more
no clouds below 1500 m and no cumulonimbus

TAF: LDRI 201125Z 2012/2112 30006KT CAVOK TX30/2013Z TN23/2103Z

Weather observations and forecasts of more than 4000 airports (METAR and TAF reports).

The available stations are represented by yellow and red dots on the map.

Hover mouse over dot to see the name of the station.

Then click to see weather observations and forecasts.

To change the map : click on the green buttons with a black cross to zoom in, on the green button with a dash to zoom out, or on the green arrows for adjacent maps.


METAR-TAF: